Time;durP1;ratioP1;P1;durP2;ratioP2;P2;SDS_P1;SDS_P2;PMS_P1;PMS_P2;Temp;Humidity;BMP_temperature;BMP_pressure;BME280_temperature;BME280_humidity;BME280_pressure;Samples;Min_cycle;Max_cycle;Signal;HPM_P1;HPM_P2
2021/06/10 00:00:30;;;;;;;59.90;40.63;;;;;;;13.82;100.00;96279.69;1027435;28;20042;-68
2021/06/10 00:01:00;;;;;;;54.00;38.35;;;;;;;13.80;100.00;96272.03;1026532;28;20026;-68
2021/06/10 00:01:31;;;;;;;58.33;39.50;;;;;;;13.83;100.00;96279.41;1031142;28;20034;-68
2021/06/10 00:02:01;;;;;;;49.90;39.17;;;;;;;13.83;100.00;96276.78;1030985;28;20088;-67
2021/06/10 00:02:32;;;;;;;54.78;40.83;;;;;;;13.83;100.00;96278.63;1037164;28;20128;-68
2021/06/10 00:03:02;;;;;;;61.00;42.08;;;;;;;13.77;100.00;96275.19;1039235;28;20438;-68
2021/06/10 00:03:33;;;;;;;62.15;41.03;;;;;;;13.80;100.00;96277.31;1030933;28;20099;-68
2021/06/10 00:04:03;;;;;;;52.53;37.35;;;;;;;13.82;100.00;96283.13;1031064;28;20578;-67
2021/06/10 00:04:34;;;;;;;58.03;39.45;;;;;;;13.81;100.00;96275.44;1026473;28;20023;-68
2021/06/10 00:05:06;;;;;;;51.97;38.28;;;;;;;13.81;100.00;96281.50;1027395;28;20027;-67
2021/06/10 00:05:36;;;;;;;56.58;39.47;;;;;;;13.80;100.00;96282.59;1030769;28;20050;-68
2021/06/10 00:06:07;;;;;;;47.28;36.75;;;;;;;13.85;100.00;96281.78;1029129;28;20278;-68
2021/06/10 00:06:37;;;;;;;53.55;41.45;;;;;;;13.82;100.00;96279.69;1027644;28;20026;-68
2021/06/10 00:07:08;;;;;;;59.53;40.90;;;;;;;13.83;100.00;96278.63;1027148;28;20035;-68
2021/06/10 00:07:38;;;;;;;50.75;38.65;;;;;;;13.84;100.00;96274.91;1026605;28;20031;-67
2021/06/10 00:08:10;;;;;;;54.08;39.90;;;;;;;13.82;100.00;96277.06;1017528;29;20050;-68
2021/06/10 00:08:43;;;;;;;54.53;36.63;;;;;;;13.82;100.00;96287.59;1022187;28;20051;-68
2021/06/10 00:09:14;;;;;;;50.47;38.47;;;;;;;13.80;100.00;96285.22;1025142;28;20305;-68
2021/06/10 00:09:44;;;;;;;47.22;36.35;;;;;;;13.80;100.00;96279.94;1027618;28;20031;-68
2021/06/10 00:10:16;;;;;;;62.40;41.53;;;;;;;13.81;100.00;96286.78;1027485;28;20043;-68
2021/06/10 00:10:46;;;;;;;63.38;40.85;;;;;;;13.80;100.00;96281.78;1032045;28;20034;-67
2021/06/10 00:11:17;;;;;;;54.78;39.20;;;;;;;13.80;100.00;96284.44;1026257;28;20274;-67
2021/06/10 00:11:47;;;;;;;58.65;39.72;;;;;;;13.78;100.00;96281.25;1022851;28;20031;-67
2021/06/10 00:12:18;;;;;;;70.53;44.63;;;;;;;13.77;100.00;96280.47;1026811;28;20151;-67
2021/06/10 00:12:49;;;;;;;56.90;41.15;;;;;;;13.78;100.00;96284.72;1023219;28;20043;-67
2021/06/10 00:13:19;;;;;;;53.42;39.83;;;;;;;13.80;100.00;96281.78;1022974;29;20333;-67
2021/06/10 00:13:50;;;;;;;56.30;41.47;;;;;;;13.72;100.00;96277.88;1022900;28;20023;-65
2021/06/10 00:14:20;;;;;;;64.88;44.13;;;;;;;13.77;100.00;96282.34;1027146;28;20081;-68
2021/06/10 00:14:52;;;;;;;55.78;38.97;;;;;;;13.78;100.00;96286.53;1035176;28;20037;-68
2021/06/10 00:15:24;;;;;;;59.75;41.75;;;;;;;13.73;100.00;96278.66;1035276;28;20089;-67
2021/06/10 00:15:54;;;;;;;54.13;40.75;;;;;;;13.79;100.00;96283.66;1028168;28;20357;-68
2021/06/10 00:16:25;;;;;;;62.95;43.05;;;;;;;13.79;100.00;96286.28;1030843;28;20821;-66
2021/06/10 00:16:55;;;;;;;56.10;40.88;;;;;;;13.80;100.00;96285.22;1030968;28;20424;-67
2021/06/10 00:17:26;;;;;;;67.88;43.58;;;;;;;13.79;100.00;96288.94;1031092;28;20613;-67
2021/06/10 00:17:57;;;;;;;75.20;46.03;;;;;;;13.78;100.00;96284.72;1030946;28;20480;-67
2021/06/10 00:18:27;;;;;;;72.85;44.70;;;;;;;13.78;100.00;96281.25;1030535;28;20641;-68
2021/06/10 00:18:58;;;;;;;63.13;43.83;;;;;;;13.77;100.00;96290.25;1026965;28;20026;-67
2021/06/10 00:19:28;;;;;;;62.75;42.67;;;;;;;13.77;100.00;96288.38;1023148;28;20023;-68
2021/06/10 00:19:59;;;;;;;58.67;42.17;;;;;;;13.75;100.00;96285.25;1026664;28;20031;-67
2021/06/10 00:20:31;;;;;;;60.85;43.22;;;;;;;13.76;100.00;96284.19;1039126;28;20518;-68
2021/06/10 00:21:01;;;;;;;68.72;45.10;;;;;;;13.75;100.00;96287.88;1030622;28;20054;-68
2021/06/10 00:21:32;;;;;;;57.47;41.22;;;;;;;13.77;100.00;96292.88;1030698;28;20336;-68
2021/06/10 00:22:02;;;;;;;57.00;41.58;;;;;;;13.80;100.00;96297.63;1030949;28;20049;-68
2021/06/10 00:22:35;;;;;;;64.20;43.10;;;;;;;13.79;100.00;96288.94;1031250;28;20030;-68
2021/06/10 00:23:09;;;;;;;55.38;40.70;;;;;;;13.77;100.00;96296.31;1035064;28;20480;-68
2021/06/10 00:23:40;;;;;;;56.15;40.97;;;;;;;13.79;100.00;96296.84;1031253;28;20349;-69
2021/06/10 00:24:10;;;;;;;61.67;43.78;;;;;;;13.81;100.00;96296.56;1035057;28;20029;-67
2021/06/10 00:24:41;;;;;;;59.67;41.72;;;;;;;13.79;100.00;96291.56;1034275;28;20018;-67
2021/06/10 00:25:11;;;;;;;58.03;42.67;;;;;;;13.81;100.00;96297.34;1030578;28;20034;-68
2021/06/10 00:25:42;;;;;;;56.28;42.80;;;;;;;13.81;100.00;96291.28;1035141;28;20462;-68
2021/06/10 00:26:13;;;;;;;66.20;44.15;;;;;;;13.80;100.00;96298.41;1031184;28;20065;-67
2021/06/10 00:26:46;;;;;;;73.80;45.95;;;;;;;13.78;100.00;96295.25;1030591;28;20037;-68
2021/06/10 00:27:20;;;;;;;55.40;41.15;;;;;;;13.77;100.00;96298.94;1027637;28;20031;-68
2021/06/10 00:27:51;;;;;;;71.60;45.05;;;;;;;13.77;100.00;96293.66;1031092;28;20285;-68
2021/06/10 00:28:21;;;;;;;52.78;39.67;;;;;;;13.75;100.00;96292.34;1027277;28;20409;-66
2021/06/10 00:28:52;;;;;;;52.72;38.92;;;;;;;13.72;100.00;96293.69;1027498;28;20038;-68
2021/06/10 00:29:22;;;;;;;53.42;40.20;;;;;;;13.72;100.00;96292.91;1031367;28;20026;-67
2021/06/10 00:29:53;;;;;;;48.78;37.28;;;;;;;13.67;100.00;96289.22;1035240;28;20061;-68
2021/06/10 00:30:23;;;;;;;49.63;36.65;;;;;;;13.52;100.00;96268.16;1028094;28;20431;-68
2021/06/10 00:30:53;;;;;;;50.53;38.30;;;;;;;13.63;100.00;96284.75;1030968;28;20543;-66
2021/06/10 00:31:24;;;;;;;54.03;39.45;;;;;;;13.66;100.00;96289.50;1026191;28;20019;-66
2021/06/10 00:31:54;;;;;;;50.65;38.40;;;;;;;13.64;100.00;96296.88;1026995;28;20023;-68
2021/06/10 00:32:25;;;;;;;47.95;36.90;;;;;;;13.62;100.00;96285.81;1030912;28;20693;-67
2021/06/10 00:32:55;;;;;;;50.13;38.35;;;;;;;13.61;100.00;96289.50;1032139;28;20076;-67
2021/06/10 00:33:26;;;;;;;57.72;39.75;;;;;;;13.64;100.00;96291.59;1030946;28;20026;-68
2021/06/10 00:33:56;;;;;;;64.50;43.65;;;;;;;13.64;100.00;96287.09;1031003;28;20023;-68
2021/06/10 00:34:29;;;;;;;62.88;43.00;;;;;;;13.63;100.00;96292.66;1030873;28;20026;-68
2021/06/10 00:35:00;;;;;;;56.28;42.60;;;;;;;13.66;100.00;96292.13;1027046;28;20815;-68
2021/06/10 00:35:31;;;;;;;61.25;42.35;;;;;;;13.68;100.00;96290.81;1027385;28;20501;-68
2021/06/10 00:36:01;;;;;;;49.53;39.40;;;;;;;13.68;100.00;96290.81;1031562;28;20524;-67
2021/06/10 00:36:31;;;;;;;46.25;36.78;;;;;;;13.72;100.00;96288.44;1033900;28;20037;-67
2021/06/10 00:37:02;;;;;;;50.10;39.22;;;;;;;13.69;100.00;96281.03;1035125;28;20030;-68
2021/06/10 00:37:32;;;;;;;44.58;36.35;;;;;;;13.75;100.00;96293.16;1027027;28;20027;-69
2021/06/10 00:38:03;;;;;;;61.65;42.85;;;;;;;13.73;100.00;96290.00;1020842;28;20034;-64
2021/06/10 00:38:36;;;;;;;58.88;41.75;;;;;;;13.71;100.00;96292.09;1023056;29;20055;-68
2021/06/10 00:39:06;;;;;;;64.15;42.50;;;;;;;13.70;100.00;96287.88;1019740;28;20271;-67
2021/06/10 00:39:37;;;;;;;56.05;37.78;;;;;;;13.71;100.00;96292.09;1023454;28;20031;-67
2021/06/10 00:40:08;;;;;;;58.28;42.08;;;;;;;13.63;100.00;96284.75;1025008;28;20278;-66
2021/06/10 00:40:39;;;;;;;51.78;39.38;;;;;;;13.61;100.00;96269.19;1029506;28;20488;-67
2021/06/10 00:41:09;;;;;;;63.13;42.05;;;;;;;13.69;100.00;96283.69;1022125;28;20275;-68
2021/06/10 00:41:40;;;;;;;51.97;39.00;;;;;;;13.71;100.00;96288.69;1022651;28;20465;-67
2021/06/10 00:42:11;;;;;;;55.90;39.17;;;;;;;13.69;100.00;96286.31;1018986;29;20124;-68
2021/06/10 00:42:41;;;;;;;56.25;40.47;;;;;;;13.70;100.00;96290.53;1023666;28;20027;-68
2021/06/10 00:43:12;;;;;;;52.95;39.83;;;;;;;13.70;100.00;96285.25;1027184;28;21046;-67
2021/06/10 00:43:42;;;;;;;64.10;42.88;;;;;;;13.68;100.00;96287.34;1027325;28;20058;-65
2021/06/10 00:44:12;;;;;;;54.40;39.55;;;;;;;13.71;100.00;96291.31;1022867;29;20031;-67
2021/06/10 00:44:44;;;;;;;58.20;41.05;;;;;;;13.71;100.00;96291.31;1023104;29;20035;-67
2021/06/10 00:45:15;;;;;;;57.33;42.20;;;;;;;13.68;100.00;96282.09;1019263;29;20545;-68
2021/06/10 00:45:46;;;;;;;52.20;39.45;;;;;;;13.74;100.00;96291.56;1023521;28;20891;-67
2021/06/10 00:46:16;;;;;;;46.65;35.67;;;;;;;13.76;100.00;96294.72;1031060;28;20300;-67
2021/06/10 00:46:47;;;;;;;45.80;35.63;;;;;;;13.76;100.00;96293.94;1031527;28;20782;-67
2021/06/10 00:47:17;;;;;;;48.78;38.13;;;;;;;13.73;100.00;96290.00;1032268;28;20034;-68
2021/06/10 00:47:49;;;;;;;57.53;42.45;;;;;;;13.74;100.00;96296.06;1030721;28;20137;-68
2021/06/10 00:48:22;;;;;;;54.17;39.95;;;;;;;13.74;100.00;96291.56;1030970;28;20113;-67
2021/06/10 00:48:53;;;;;;;49.08;38.05;;;;;;;13.74;100.00;96299.47;1026708;28;20266;-70
2021/06/10 00:49:23;;;;;;;47.58;37.85;;;;;;;13.74;100.00;96294.19;1024459;28;20294;-67
2021/06/10 00:49:54;;;;;;;46.80;36.47;;;;;;;13.74;100.00;96291.56;1030944;28;20652;-67
2021/06/10 00:50:36;;;;;;;53.97;40.58;;;;;;;13.74;100.00;96291.56;1022982;29;20090;-68
2021/06/10 00:51:07;;;;;;;53.95;39.92;;;;;;;13.73;100.00;96292.63;1024090;28;20612;-66
2021/06/10 00:51:40;;;;;;;43.13;34.63;;;;;;;13.73;100.00;96289.22;1028998;28;20262;-68
2021/06/10 00:52:12;;;;;;;50.55;38.92;;;;;;;13.73;100.00;96290.00;1033201;28;20273;-67
2021/06/10 00:52:43;;;;;;;51.30;38.38;;;;;;;13.70;100.00;96285.25;1035190;28;20041;-67
2021/06/10 00:53:25;;;;;;;50.53;37.83;;;;;;;13.71;100.00;96286.81;1026979;28;20298;-68
2021/06/10 00:53:56;;;;;;;51.50;38.13;;;;;;;13.71;100.00;96296.59;1028674;28;20771;-67
2021/06/10 00:54:27;;;;;;;52.22;37.83;;;;;;;13.67;100.00;96286.56;1035008;28;20260;-68
2021/06/10 00:54:57;;;;;;;49.75;35.92;;;;;;;13.67;100.00;96286.56;1037396;28;20280;-67
2021/06/10 00:55:28;;;;;;;56.88;39.33;;;;;;;13.68;100.00;96292.63;1039047;28;20033;-68
2021/06/10 00:55:59;;;;;;;45.65;35.97;;;;;;;13.68;100.00;96290.81;1034848;28;20068;-69
2021/06/10 00:56:29;;;;;;;49.38;38.58;;;;;;;13.64;100.00;96286.31;1026973;28;20030;-67
2021/06/10 00:57:00;;;;;;;44.03;36.22;;;;;;;13.64;100.00;96287.09;1026993;28;20644;-68
2021/06/10 00:57:33;;;;;;;46.83;36.90;;;;;;;13.66;100.00;96289.50;1022873;28;20043;-68
2021/06/10 00:58:04;;;;;;;46.50;36.50;;;;;;;13.64;100.00;96286.31;1022876;29;20118;-67
2021/06/10 00:58:34;;;;;;;48.90;37.65;;;;;;;13.64;100.00;96287.09;1023899;28;20302;-67
2021/06/10 00:59:05;;;;;;;48.38;36.70;;;;;;;13.65;100.00;96283.44;1031449;28;20565;-67
2021/06/10 00:59:35;;;;;;;56.00;39.42;;;;;;;13.64;100.00;96296.88;1026791;28;20476;-68
2021/06/10 01:00:07;;;;;;;45.70;35.17;;;;;;;13.64;100.00;96284.47;1023241;28;20053;-68
2021/06/10 01:00:38;;;;;;;56.85;39.33;;;;;;;13.64;100.00;96296.88;1026921;28;20118;-68
2021/06/10 01:01:08;;;;;;;49.65;38.75;;;;;;;13.60;100.00;96291.34;1018946;28;20259;-67
2021/06/10 01:01:39;;;;;;;43.03;35.80;;;;;;;13.64;100.00;96286.31;1023613;28;20033;-68
2021/06/10 01:02:09;;;;;;;47.33;36.97;;;;;;;13.62;100.00;96293.72;1030837;28;20038;-68
2021/06/10 01:02:40;;;;;;;46.17;35.88;;;;;;;13.62;100.00;96286.59;1026694;28;20019;-67
2021/06/10 01:03:13;;;;;;;50.90;37.53;;;;;;;13.66;100.00;96300.03;1027105;28;20027;-67
2021/06/10 01:03:43;;;;;;;55.63;40.35;;;;;;;13.62;100.00;96291.88;1023050;29;20618;-68
2021/06/10 01:04:13;;;;;;;50.33;36.80;;;;;;;13.61;100.00;96284.22;1023927;28;20321;-68
2021/06/10 01:04:44;;;;;;;58.20;40.40;;;;;;;13.61;100.00;96289.50;1027293;28;20046;-68
2021/06/10 01:05:18;;;;;;;55.08;40.95;;;;;;;13.61;100.00;96292.13;1031068;28;20026;-67
2021/06/10 01:05:53;;;;;;;50.10;37.85;;;;;;;13.64;100.00;96288.97;1031021;28;20029;-67
2021/06/10 01:06:26;;;;;;;48.15;39.33;;;;;;;13.61;100.00;96292.91;1027986;28;20289;-67
2021/06/10 01:07:20;;;;;;;51.83;39.30;;;;;;;13.61;100.00;96292.91;1023109;29;20302;-68
2021/06/10 01:08:06;;;;;;;47.75;36.95;;;;;;;13.60;100.00;96290.56;1025263;28;21852;-67
2021/06/10 01:08:41;;;;;;;47.92;37.00;;;;;;;13.55;100.00;96286.09;1028364;28;20262;-67
2021/06/10 01:09:14;;;;;;;49.15;37.40;;;;;;;13.53;100.00;96284.78;1026982;28;20297;-67
2021/06/10 01:09:47;;;;;;;42.17;34.65;;;;;;;13.54;100.00;96286.34;1025956;28;20258;-68
2021/06/10 01:10:20;;;;;;;41.83;34.70;;;;;;;13.52;100.00;96288.47;1028173;28;20816;-67
2021/06/10 01:10:57;;;;;;;45.53;34.17;;;;;;;13.48;100.00;96284.78;1032253;28;20257;-68
2021/06/10 01:11:48;;;;;;;40.97;35.17;;;;;;;13.49;100.00;96289.00;1026710;28;20285;-68
2021/06/10 01:12:40;;;;;;;40.90;33.10;;;;;;;13.46;100.00;96289.53;1030527;28;20287;-68
2021/06/10 01:13:18;;;;;;;46.05;35.20;;;;;;;13.45;100.00;96294.03;1026853;28;20341;-68
2021/06/10 01:13:57;;;;;;;45.15;33.40;;;;;;;13.40;100.00;96292.19;1022994;29;20930;-67
2021/06/10 01:14:49;;;;;;;44.40;34.53;;;;;;;13.41;100.00;96292.97;1027613;28;20258;-68
2021/06/10 01:15:23;;;;;;;49.03;35.75;;;;;;;13.30;100.00;96281.66;1039191;28;20393;-68
2021/06/10 01:15:56;;;;;;;46.50;34.03;;;;;;;13.34;100.00;96287.97;1030729;28;20626;-68
2021/06/10 01:16:27;;;;;;;42.92;34.50;;;;;;;13.37;100.00;96290.06;1025991;28;20640;-67
2021/06/10 01:16:57;;;;;;;57.70;40.03;;;;;;;13.37;100.00;96292.69;1027190;28;20276;-68
2021/06/10 01:17:28;;;;;;;51.25;38.05;;;;;;;13.33;100.00;96291.66;1030822;28;20065;-68
2021/06/10 01:17:58;;;;;;;44.25;33.95;;;;;;;13.30;100.00;96292.19;1030729;28;20026;-67
2021/06/10 01:18:28;;;;;;;46.22;35.03;;;;;;;13.28;100.00;96283.78;1022539;29;20023;-67
2021/06/10 01:19:04;;;;;;;45.72;36.40;;;;;;;13.26;100.00;96288.50;1019122;29;20023;-67
2021/06/10 01:19:40;;;;;;;45.85;35.05;;;;;;;13.26;100.00;96285.88;1022879;28;20108;-67
2021/06/10 01:20:11;;;;;;;46.17;35.78;;;;;;;13.26;100.00;96288.50;1022950;29;20326;-68
2021/06/10 01:20:43;;;;;;;50.55;38.22;;;;;;;13.27;100.00;96284.81;1026318;28;20294;-67
2021/06/10 01:21:15;;;;;;;47.95;37.03;;;;;;;13.32;100.00;96290.09;1023270;28;20274;-68
2021/06/10 01:21:46;;;;;;;59.22;42.45;;;;;;;13.32;100.00;96290.09;1019049;29;20272;-67
2021/06/10 01:22:25;;;;;;;66.57;43.47;;;;;;;13.31;100.00;96291.16;1026930;28;20349;-67
2021/06/10 01:22:56;;;;;;;48.60;38.85;;;;;;;13.10;100.00;96250.81;1030847;28;20027;-67
2021/06/10 01:23:37;;;;;;;53.28;40.47;;;;;;;13.27;100.00;96279.53;1027187;28;20246;-67
2021/06/10 01:24:29;;;;;;;50.30;37.60;;;;;;;13.23;100.00;96280.31;1025551;28;20034;-67
2021/06/10 01:25:29;;;;;;;45.70;36.80;;;;;;;13.32;100.00;96289.31;1025256;28;20282;-67
2021/06/10 01:26:09;;;;;;;58.25;41.53;;;;;;;13.31;100.00;96293.78;1026111;28;20250;-67
2021/06/10 01:27:15;;;;;;;57.17;41.30;;;;;;;13.33;100.00;96289.03;1024798;28;20923;-68
2021/06/10 01:27:56;;;;;;;56.78;40.97;;;;;;;13.31;100.00;96288.53;1011085;29;20043;-67
2021/06/10 01:28:28;;;;;;;59.30;39.97;;;;;;;13.26;100.00;96282.44;1028863;28;20269;-67
2021/06/10 01:29:00;;;;;;;56.10;39.70;;;;;;;13.25;100.00;96279.03;1024640;28;20286;-67
2021/06/10 01:29:31;;;;;;;53.60;40.63;;;;;;;13.27;100.00;96287.44;1022713;29;20308;-67
2021/06/10 01:30:10;;;;;;;59.83;41.05;;;;;;;13.19;100.00;96280.06;1019367;29;20271;-67
2021/06/10 01:30:47;;;;;;;68.47;42.30;;;;;;;13.27;100.00;96287.44;1026839;28;20007;-67
2021/06/10 01:31:18;;;;;;;58.55;43.05;;;;;;;13.20;100.00;96277.16;1024078;28;21283;-67
2021/06/10 01:31:51;;;;;;;53.60;39.20;;;;;;;13.27;100.00;96282.19;1023144;29;20274;-67
2021/06/10 01:32:22;;;;;;;49.55;37.28;;;;;;;13.26;100.00;96285.09;1021706;28;20275;-68
2021/06/10 01:32:54;;;;;;;62.33;40.83;;;;;;;13.26;100.00;96283.25;1023817;28;21007;-67
2021/06/10 01:33:28;;;;;;;58.47;40.72;;;;;;;13.25;100.00;96284.31;1028287;28;20037;-66
2021/06/10 01:34:01;;;;;;;63.80;43.00;;;;;;;13.24;100.00;96287.97;1027629;28;20262;-67
2021/06/10 01:34:32;;;;;;;55.83;41.47;;;;;;;13.19;100.00;96278.22;1025334;28;20262;-67
2021/06/10 01:35:03;;;;;;;67.28;43.25;;;;;;;13.22;100.00;96284.81;1018957;28;20263;-67
2021/06/10 01:35:56;;;;;;;61.13;41.78;;;;;;;13.24;100.00;96282.69;1019569;29;20027;-68
2021/06/10 01:36:29;;;;;;;64.88;41.25;;;;;;;13.21;100.00;96283.19;1023623;28;20263;-67
2021/06/10 01:36:59;;;;;;;59.90;41.47;;;;;;;13.20;100.00;96281.63;1018995;29;20392;-68
2021/06/10 01:37:29;;;;;;;64.53;41.80;;;;;;;13.19;100.00;96280.06;1022575;29;20263;-67
2021/06/10 01:38:00;;;;;;;57.15;41.75;;;;;;;13.15;100.00;96273.75;1018403;29;20020;-68
2021/06/10 01:38:30;;;;;;;51.58;39.83;;;;;;;13.13;100.00;96268.72;1022882;28;20026;-67
2021/06/10 01:39:04;;;;;;;57.28;39.65;;;;;;;13.13;100.00;96268.72;1030928;28;20157;-67
2021/06/10 01:39:35;;;;;;;62.85;41.08;;;;;;;13.17;100.00;96282.16;1022405;28;20027;-67
2021/06/10 01:40:06;;;;;;;51.35;38.85;;;;;;;13.11;100.00;96272.66;1025665;28;20744;-66
2021/06/10 01:40:36;;;;;;;57.20;41.42;;;;;;;13.14;100.00;96280.06;1022860;29;20756;-67
2021/06/10 01:41:07;;;;;;;54.35;40.33;;;;;;;13.14;100.00;96278.19;1018546;29;20031;-66
2021/06/10 01:41:39;;;;;;;56.25;40.28;;;;;;;13.14;100.00;96277.41;1021303;28;20030;-67
2021/06/10 01:42:10;;;;;;;55.80;39.40;;;;;;;13.13;100.00;96278.47;1023093;28;20420;-68
2021/06/10 01:42:41;;;;;;;52.60;38.58;;;;;;;13.12;100.00;96279.53;1023831;28;20271;-67
2021/06/10 01:43:12;;;;;;;54.13;39.80;;;;;;;13.11;100.00;96273.50;1032144;28;20284;-66
2021/06/10 01:43:45;;;;;;;58.08;42.08;;;;;;;13.08;100.00;96279.28;1021762;28;20104;-66
2021/06/10 01:44:16;;;;;;;53.35;40.00;;;;;;;13.11;100.00;96278.75;1020404;29;20350;-67
2021/06/10 01:44:47;;;;;;;63.80;43.17;;;;;;;13.10;100.00;96276.38;1018309;29;20330;-67
2021/06/10 01:45:19;;;;;;;58.10;42.70;;;;;;;13.05;100.00;96271.91;1028611;28;20504;-67
2021/06/10 01:45:49;;;;;;;52.22;39.13;;;;;;;13.07;100.00;96271.63;1022320;29;20353;-66
2021/06/10 01:46:27;;;;;;;53.13;39.88;;;;;;;13.08;100.00;96278.50;1022514;29;20846;-67
2021/06/10 01:46:57;;;;;;;56.53;39.67;;;;;;;13.05;100.00;96274.53;1024284;28;20034;-66
2021/06/10 01:47:28;;;;;;;51.70;38.35;;;;;;;13.05;100.00;96273.75;1030237;28;20261;-64
2021/06/10 01:47:59;;;;;;;55.15;39.05;;;;;;;12.98;100.00;96274.81;1026771;28;20039;-66
2021/06/10 01:48:29;;;;;;;65.15;42.35;;;;;;;12.99;100.00;96280.84;1026891;28;20022;-67
2021/06/10 01:49:00;;;;;;;55.53;38.53;;;;;;;12.96;100.00;96273.47;1030933;28;20511;-68
2021/06/10 01:49:31;;;;;;;63.58;42.42;;;;;;;12.98;100.00;96268.75;1027053;28;20023;-67
2021/06/10 01:50:01;;;;;;;56.13;40.22;;;;;;;12.98;100.00;96274.81;1022102;29;20027;-67
2021/06/10 01:50:31;;;;;;;60.80;41.38;;;;;;;12.98;100.00;96271.38;1022437;29;20118;-67
2021/06/10 01:51:05;;;;;;;62.45;40.40;;;;;;;12.96;100.00;96273.47;1022195;29;20036;-66
2021/06/10 01:51:35;;;;;;;76.00;45.30;;;;;;;12.95;100.00;96269.28;1022306;28;20302;-68
2021/06/10 01:52:06;;;;;;;77.07;45.90;;;;;;;12.96;100.00;96270.84;1030441;28;20072;-68
2021/06/10 01:52:37;;;;;;;63.75;43.17;;;;;;;12.90;100.00;96262.16;1030968;28;20040;-66
2021/06/10 01:53:14;;;;;;;74.35;45.20;;;;;;;12.95;100.00;96271.91;1034881;28;20033;-67
2021/06/10 01:53:45;;;;;;;59.25;42.22;;;;;;;12.94;100.00;96273.75;1036389;28;20018;-67
2021/06/10 01:54:16;;;;;;;67.00;42.47;;;;;;;12.93;100.00;96274.78;1034541;28;20748;-68
2021/06/10 01:54:46;;;;;;;63.88;43.78;;;;;;;12.93;100.00;96276.66;1031816;28;20348;-67
2021/06/10 01:55:17;;;;;;;58.22;42.08;;;;;;;12.95;100.00;96274.53;1026293;28;20110;-68
2021/06/10 01:55:48;;;;;;;61.08;42.28;;;;;;;12.95;100.00;96264.78;1022953;28;20023;-68
2021/06/10 01:56:20;;;;;;;74.53;46.58;;;;;;;12.92;100.00;96265.31;1022619;29;20271;-68
2021/06/10 01:56:50;;;;;;;72.40;45.95;;;;;;;12.95;100.00;96264.00;1022111;28;20063;-68
2021/06/10 01:57:21;;;;;;;72.07;45.35;;;;;;;12.94;100.00;96270.31;1022758;28;20346;-67
2021/06/10 01:57:51;;;;;;;64.93;43.58;;;;;;;12.93;100.00;96269.53;1022964;28;20042;-67
2021/06/10 01:58:22;;;;;;;71.55;44.65;;;;;;;12.94;100.00;96268.50;1026346;28;20062;-67
2021/06/10 01:58:52;;;;;;;85.47;48.63;;;;;;;12.93;100.00;96274.78;1030653;28;20027;-68
2021/06/10 01:59:23;;;;;;;79.20;49.17;;;;;;;12.88;100.00;96264.28;1026602;28;20508;-68
2021/06/10 01:59:55;;;;;;;75.80;46.05;;;;;;;12.93;100.00;96272.16;1022799;28;20027;-68
2021/06/10 02:00:25;;;;;;;90.15;50.45;;;;;;;12.92;100.00;96269.81;1022254;29;20023;-67
2021/06/10 02:00:56;;;;;;;82.53;47.90;;;;;;;12.92;100.00;96270.59;1026480;28;20329;-64
2021/06/10 02:01:30;;;;;;;78.07;47.17;;;;;;;12.86;100.00;96255.06;1026308;28;20019;-68
2021/06/10 02:02:04;;;;;;;79.97;48.05;;;;;;;12.91;100.00;96269.03;1028226;28;20023;-68
2021/06/10 02:02:35;;;;;;;86.93;49.83;;;;;;;12.91;100.00;96274.28;1018434;29;20411;-67
2021/06/10 02:03:06;;;;;;;77.32;47.13;;;;;;;12.87;100.00;96262.69;1014763;29;20300;-67
2021/06/10 02:03:37;;;;;;;98.53;51.70;;;;;;;12.86;100.00;96260.31;1016456;29;20790;-67
2021/06/10 02:04:08;;;;;;;93.90;51.40;;;;;;;12.90;100.00;96270.06;1018502;29;20279;-68
2021/06/10 02:04:39;;;;;;;92.70;49.00;;;;;;;12.90;100.00;96271.91;1022552;29;20015;-67
2021/06/10 02:05:11;;;;;;;100.53;52.90;;;;;;;12.89;100.00;96270.34;1022368;29;20274;-67
2021/06/10 02:05:41;;;;;;;87.13;50.33;;;;;;;12.89;100.00;96271.13;1024162;28;20045;-67
2021/06/10 02:06:12;;;;;;;85.43;51.45;;;;;;;12.87;100.00;96267.94;1022676;29;20309;-68
2021/06/10 02:06:42;;;;;;;67.85;46.05;;;;;;;12.88;100.00;96271.38;1018660;29;20043;-66
2021/06/10 02:07:13;;;;;;;68.35;42.60;;;;;;;12.85;100.00;96270.06;1018561;29;20043;-66
2021/06/10 02:07:43;;;;;;;66.47;43.33;;;;;;;12.85;100.00;96269.28;1022705;28;20740;-67
2021/06/10 02:08:20;;;;;;;64.95;41.72;;;;;;;12.79;100.00;96260.59;1019648;28;20541;-68
2021/06/10 02:08:53;;;;;;;64.97;42.50;;;;;;;12.80;100.00;96256.88;1023607;28;20259;-66
2021/06/10 02:09:23;;;;;;;77.88;45.80;;;;;;;12.86;100.00;96270.84;1022590;29;21135;-68
2021/06/10 02:09:55;;;;;;;70.15;44.38;;;;;;;12.77;100.00;96252.13;1022882;29;20533;-68
2021/06/10 02:10:26;;;;;;;70.30;44.83;;;;;;;12.86;100.00;96265.59;1019226;29;20019;-66
2021/06/10 02:10:57;;;;;;;79.65;47.08;;;;;;;12.86;100.00;96268.22;1022095;28;20339;-65
2021/06/10 02:11:27;;;;;;;85.70;49.45;;;;;;;12.84;100.00;96265.84;1022922;28;20267;-67
2021/06/10 02:11:58;;;;;;;85.43;48.88;;;;;;;12.84;100.00;96270.31;1018677;29;20256;-66
2021/06/10 02:12:28;;;;;;;72.85;46.10;;;;;;;12.86;100.00;96265.59;1022804;28;20023;-67
2021/06/10 02:12:59;;;;;;;68.38;45.72;;;;;;;12.83;100.00;96260.84;1026593;28;20027;-67
2021/06/10 02:13:30;;;;;;;76.28;46.92;;;;;;;12.79;100.00;96252.69;1026583;28;20030;-66
2021/06/10 02:14:01;;;;;;;83.82;47.85;;;;;;;12.79;100.00;96255.31;1026095;28;20038;-67
2021/06/10 02:14:31;;;;;;;82.78;48.67;;;;;;;12.84;100.00;96263.19;1018551;29;20334;-67
2021/06/10 02:15:08;;;;;;;90.50;49.45;;;;;;;12.83;100.00;96263.47;1018821;29;20019;-67
2021/06/10 02:15:39;;;;;;;60.35;42.70;;;;;;;12.80;100.00;96264.00;1023639;28;20115;-67
2021/06/10 02:16:13;;;;;;;68.60;45.03;;;;;;;12.81;100.00;96265.56;1023449;28;20302;-67
2021/06/10 02:16:44;;;;;;;62.30;43.15;;;;;;;12.81;100.00;96269.03;1022740;29;20658;-67
2021/06/10 02:17:16;;;;;;;62.17;42.42;;;;;;;12.77;100.00;96257.41;1022552;29;20267;-67
2021/06/10 02:17:47;;;;;;;67.60;43.10;;;;;;;12.78;100.00;96266.91;1026356;28;20041;-69
2021/06/10 02:18:18;;;;;;;78.68;46.10;;;;;;;12.80;100.00;96267.41;1026234;28;20274;-67
2021/06/10 02:18:49;;;;;;;100.47;50.67;;;;;;;12.78;100.00;96268.75;1026179;28;20258;-66
2021/06/10 02:19:22;;;;;;;72.47;44.28;;;;;;;12.78;100.00;96266.13;1022636;29;20035;-68
2021/06/10 02:19:53;;;;;;;67.82;42.08;;;;;;;12.77;100.00;96265.31;1020196;29;20274;-65
2021/06/10 02:20:23;;;;;;;79.20;47.05;;;;;;;12.78;100.00;96266.91;1022613;29;20035;-67
2021/06/10 02:20:54;;;;;;;78.00;47.13;;;;;;;12.79;100.00;96265.84;1014572;29;20032;-66
2021/06/10 02:21:24;;;;;;;76.65;46.90;;;;;;;12.79;100.00;96265.06;1018464;28;20058;-67
2021/06/10 02:21:54;;;;;;;92.93;49.72;;;;;;;12.72;100.00;96260.06;1026269;28;20050;-69
2021/06/10 02:22:25;;;;;;;116.97;55.67;;;;;;;12.77;100.00;96275.06;1022362;29;20031;-66
2021/06/10 02:22:55;;;;;;;89.35;50.78;;;;;;;12.77;100.00;96267.94;1022143;29;20026;-67
2021/06/10 02:23:26;;;;;;;101.38;53.30;;;;;;;12.78;100.00;96264.28;1025890;28;20023;-67
2021/06/10 02:23:56;;;;;;;103.32;54.03;;;;;;;12.77;100.00;96264.53;1030629;28;20464;-67
2021/06/10 02:24:27;;;;;;;105.95;54.22;;;;;;;12.77;100.00;96267.94;1030458;28;20041;-67
2021/06/10 02:24:57;;;;;;;101.90;54.10;;;;;;;12.78;100.00;96266.13;1022405;29;20038;-68
2021/06/10 02:25:28;;;;;;;96.45;51.85;;;;;;;12.80;100.00;96272.69;1018580;29;20090;-67
2021/06/10 02:25:58;;;;;;;90.50;53.33;;;;;;;12.81;100.00;96263.75;1018881;28;20023;-66
2021/06/10 02:26:29;;;;;;;91.88;53.25;;;;;;;12.66;100.00;96240.81;1022761;28;20015;-67
2021/06/10 02:26:59;;;;;;;108.32;56.00;;;;;;;12.81;100.00;96268.22;1030538;28;20031;-67